sensor_id;sensor_type;location;lat;lon;timestamp;temperature;humidity
76168;DHT22;64927;48.214;16.378;2023-02-15T00:01:41;6.60;59.10
76168;DHT22;64927;48.214;16.378;2023-02-15T00:04:13;6.60;59.10
76168;DHT22;64927;48.214;16.378;2023-02-15T00:06:38;6.60;59.30
76168;DHT22;64927;48.214;16.378;2023-02-15T00:09:07;6.60;59.10
76168;DHT22;64927;48.214;16.378;2023-02-15T00:11:33;6.60;59.00
76168;DHT22;64927;48.214;16.378;2023-02-15T00:16:40;6.50;59.20
76168;DHT22;64927;48.214;16.378;2023-02-15T00:19:07;6.50;59.40
76168;DHT22;64927;48.214;16.378;2023-02-15T00:21:34;6.50;59.40
76168;DHT22;64927;48.214;16.378;2023-02-15T00:24:02;6.50;59.50
76168;DHT22;64927;48.214;16.378;2023-02-15T00:26:28;6.60;59.20
76168;DHT22;64927;48.214;16.378;2023-02-15T00:28:55;6.70;58.90
76168;DHT22;64927;48.214;16.378;2023-02-15T00:31:21;6.60;59.10
76168;DHT22;64927;48.214;16.378;2023-02-15T00:33:49;6.70;58.90
76168;DHT22;64927;48.214;16.378;2023-02-15T00:36:15;6.70;58.90
76168;DHT22;64927;48.214;16.378;2023-02-15T00:38:41;6.50;59.60
76168;DHT22;64927;48.214;16.378;2023-02-15T00:41:07;6.50;59.70
76168;DHT22;64927;48.214;16.378;2023-02-15T00:43:34;6.40;59.70
76168;DHT22;64927;48.214;16.378;2023-02-15T00:46:01;6.50;59.40
76168;DHT22;64927;48.214;16.378;2023-02-15T00:48:27;6.30;59.60
76168;DHT22;64927;48.214;16.378;2023-02-15T00:50:56;6.50;59.40
76168;DHT22;64927;48.214;16.378;2023-02-15T00:53:22;6.60;59.10
76168;DHT22;64927;48.214;16.378;2023-02-15T00:55:48;6.50;59.20
76168;DHT22;64927;48.214;16.378;2023-02-15T00:58:14;6.30;59.60
76168;DHT22;64927;48.214;16.378;2023-02-15T01:00:43;6.50;59.70
76168;DHT22;64927;48.214;16.378;2023-02-15T01:03:09;6.60;59.40
76168;DHT22;64927;48.214;16.378;2023-02-15T01:05:35;6.60;59.30
76168;DHT22;64927;48.214;16.378;2023-02-15T01:08:02;6.50;59.60
76168;DHT22;64927;48.214;16.378;2023-02-15T01:10:28;6.40;59.70
76168;DHT22;64927;48.214;16.378;2023-02-15T01:12:54;6.50;59.70
76168;DHT22;64927;48.214;16.378;2023-02-15T01:15:21;6.50;59.70
76168;DHT22;64927;48.214;16.378;2023-02-15T01:17:46;6.40;59.20
76168;DHT22;64927;48.214;16.378;2023-02-15T01:20:18;6.50;58.90
76168;DHT22;64927;48.214;16.378;2023-02-15T01:22:44;6.40;59.60
76168;DHT22;64927;48.214;16.378;2023-02-15T01:25:10;6.60;59.30
76168;DHT22;64927;48.214;16.378;2023-02-15T01:27:35;6.60;58.80
76168;DHT22;64927;48.214;16.378;2023-02-15T01:30:01;6.50;59.10
76168;DHT22;64927;48.214;16.378;2023-02-15T01:32:30;6.50;59.40
76168;DHT22;64927;48.214;16.378;2023-02-15T01:34:58;6.30;59.80
76168;DHT22;64927;48.214;16.378;2023-02-15T01:37:23;6.20;60.40
76168;DHT22;64927;48.214;16.378;2023-02-15T01:39:49;6.10;60.70
76168;DHT22;64927;48.214;16.378;2023-02-15T01:42:21;6.10;60.80
76168;DHT22;64927;48.214;16.378;2023-02-15T01:45:00;6.10;60.80
76168;DHT22;64927;48.214;16.378;2023-02-15T01:47:38;6.20;60.30
76168;DHT22;64927;48.214;16.378;2023-02-15T01:50:23;6.20;60.20
76168;DHT22;64927;48.214;16.378;2023-02-15T01:52:55;6.20;60.30
76168;DHT22;64927;48.214;16.378;2023-02-15T01:55:28;6.20;60.20
76168;DHT22;64927;48.214;16.378;2023-02-15T01:57:55;6.30;60.00
76168;DHT22;64927;48.214;16.378;2023-02-15T02:00:21;6.30;59.80
76168;DHT22;64927;48.214;16.378;2023-02-15T02:02:53;6.30;59.70
76168;DHT22;64927;48.214;16.378;2023-02-15T02:05:19;6.40;59.70
76168;DHT22;64927;48.214;16.378;2023-02-15T02:07:45;6.20;60.00
76168;DHT22;64927;48.214;16.378;2023-02-15T02:10:15;6.00;60.40
76168;DHT22;64927;48.214;16.378;2023-02-15T02:12:47;6.00;60.90
76168;DHT22;64927;48.214;16.378;2023-02-15T02:15:15;6.20;60.40
76168;DHT22;64927;48.214;16.378;2023-02-15T02:36:59;6.30;59.10
76168;DHT22;64927;48.214;16.378;2023-02-15T02:39:41;6.20;59.70
76168;DHT22;64927;48.214;16.378;2023-02-15T02:42:46;6.20;59.90
76168;DHT22;64927;48.214;16.378;2023-02-15T02:45:41;6.10;60.10
76168;DHT22;64927;48.214;16.378;2023-02-15T02:48:15;6.00;60.50
76168;DHT22;64927;48.214;16.378;2023-02-15T02:50:42;5.90;60.80
76168;DHT22;64927;48.214;16.378;2023-02-15T02:53:10;5.90;61.90
76168;DHT22;64927;48.214;16.378;2023-02-15T02:55:44;6.00;60.80
76168;DHT22;64927;48.214;16.378;2023-02-15T02:58:21;6.00;60.70
76168;DHT22;64927;48.214;16.378;2023-02-15T03:01:03;6.00;60.90
76168;DHT22;64927;48.214;16.378;2023-02-15T03:06:24;5.90;60.90
76168;DHT22;64927;48.214;16.378;2023-02-15T03:09:03;6.10;60.80
76168;DHT22;64927;48.214;16.378;2023-02-15T03:11:30;6.10;60.30
76168;DHT22;64927;48.214;16.378;2023-02-15T03:13:56;6.00;60.40
76168;DHT22;64927;48.214;16.378;2023-02-15T03:16:23;6.00;60.70
76168;DHT22;64927;48.214;16.378;2023-02-15T03:19:03;5.80;61.00
76168;DHT22;64927;48.214;16.378;2023-02-15T03:21:48;5.90;61.30
76168;DHT22;64927;48.214;16.378;2023-02-15T03:24:25;6.00;60.90
76168;DHT22;64927;48.214;16.378;2023-02-15T03:26:53;6.00;60.60
76168;DHT22;64927;48.214;16.378;2023-02-15T03:29:24;6.10;60.40
76168;DHT22;64927;48.214;16.378;2023-02-15T03:31:54;6.00;60.40
76168;DHT22;64927;48.214;16.378;2023-02-15T03:34:22;6.00;60.30
76168;DHT22;64927;48.214;16.378;2023-02-15T03:39:51;6.20;59.80
76168;DHT22;64927;48.214;16.378;2023-02-15T03:42:38;6.00;60.20
76168;DHT22;64927;48.214;16.378;2023-02-15T03:45:24;6.00;60.30
76168;DHT22;64927;48.214;16.378;2023-02-15T03:47:52;5.90;60.60
76168;DHT22;64927;48.214;16.378;2023-02-15T03:50:29;6.00;60.50
76168;DHT22;64927;48.214;16.378;2023-02-15T03:53:28;5.80;60.90
76168;DHT22;64927;48.214;16.378;2023-02-15T03:55:55;5.80;61.10
76168;DHT22;64927;48.214;16.378;2023-02-15T03:58:21;5.70;61.10
76168;DHT22;64927;48.214;16.378;2023-02-15T04:01:16;5.70;61.10
76168;DHT22;64927;48.214;16.378;2023-02-15T04:04:13;5.80;61.20
76168;DHT22;64927;48.214;16.378;2023-02-15T04:06:41;6.00;60.60
76168;DHT22;64927;48.214;16.378;2023-02-15T04:09:10;6.20;60.10
76168;DHT22;64927;48.214;16.378;2023-02-15T04:11:54;6.30;59.80
76168;DHT22;64927;48.214;16.378;2023-02-15T04:14:20;6.20;59.90
76168;DHT22;64927;48.214;16.378;2023-02-15T04:17:08;6.20;60.00
76168;DHT22;64927;48.214;16.378;2023-02-15T04:19:34;6.30;59.90
76168;DHT22;64927;48.214;16.378;2023-02-15T04:22:18;6.40;59.30
76168;DHT22;64927;48.214;16.378;2023-02-15T04:25:02;6.40;59.50
76168;DHT22;64927;48.214;16.378;2023-02-15T04:27:45;6.50;59.20
76168;DHT22;64927;48.214;16.378;2023-02-15T04:30:13;6.40;59.10
76168;DHT22;64927;48.214;16.378;2023-02-15T04:32:41;6.40;59.40
76168;DHT22;64927;48.214;16.378;2023-02-15T04:35:09;6.50;59.20
76168;DHT22;64927;48.214;16.378;2023-02-15T04:37:35;6.60;58.90
76168;DHT22;64927;48.214;16.378;2023-02-15T04:40:01;6.50;58.90
76168;DHT22;64927;48.214;16.378;2023-02-15T04:42:28;6.60;58.80
76168;DHT22;64927;48.214;16.378;2023-02-15T04:44:54;6.30;59.00
76168;DHT22;64927;48.214;16.378;2023-02-15T04:47:19;6.20;59.80
76168;DHT22;64927;48.214;16.378;2023-02-15T04:49:45;6.20;59.60
76168;DHT22;64927;48.214;16.378;2023-02-15T04:52:11;6.40;59.50
76168;DHT22;64927;48.214;16.378;2023-02-15T04:54:37;6.20;59.80
76168;DHT22;64927;48.214;16.378;2023-02-15T04:57:04;6.10;60.30
76168;DHT22;64927;48.214;16.378;2023-02-15T04:59:30;6.10;60.10
76168;DHT22;64927;48.214;16.378;2023-02-15T05:01:55;6.30;59.80
76168;DHT22;64927;48.214;16.378;2023-02-15T05:04:23;6.40;59.70
76168;DHT22;64927;48.214;16.378;2023-02-15T05:06:49;6.40;59.20
76168;DHT22;64927;48.214;16.378;2023-02-15T05:09:15;6.30;59.90
76168;DHT22;64927;48.214;16.378;2023-02-15T05:11:40;6.30;59.90
76168;DHT22;64927;48.214;16.378;2023-02-15T05:14:08;6.40;59.60
76168;DHT22;64927;48.214;16.378;2023-02-15T05:16:34;6.20;59.80
76168;DHT22;64927;48.214;16.378;2023-02-15T05:19:02;6.20;60.10
76168;DHT22;64927;48.214;16.378;2023-02-15T05:21:28;6.20;60.20
76168;DHT22;64927;48.214;16.378;2023-02-15T05:23:54;6.20;60.40
76168;DHT22;64927;48.214;16.378;2023-02-15T05:26:22;6.20;60.40
76168;DHT22;64927;48.214;16.378;2023-02-15T05:29:06;6.30;60.20
76168;DHT22;64927;48.214;16.378;2023-02-15T05:31:32;6.50;59.90
76168;DHT22;64927;48.214;16.378;2023-02-15T05:33:59;6.50;59.70
76168;DHT22;64927;48.214;16.378;2023-02-15T05:36:24;6.60;59.20
76168;DHT22;64927;48.214;16.378;2023-02-15T05:38:53;6.60;59.20
76168;DHT22;64927;48.214;16.378;2023-02-15T05:41:19;6.60;59.30
76168;DHT22;64927;48.214;16.378;2023-02-15T05:43:45;6.50;59.10
76168;DHT22;64927;48.214;16.378;2023-02-15T05:46:11;6.50;59.20
76168;DHT22;64927;48.214;16.378;2023-02-15T05:48:37;6.50;59.50
76168;DHT22;64927;48.214;16.378;2023-02-15T05:51:10;6.50;59.40
76168;DHT22;64927;48.214;16.378;2023-02-15T05:53:39;6.60;59.30
76168;DHT22;64927;48.214;16.378;2023-02-15T05:56:06;6.60;59.10
76168;DHT22;64927;48.214;16.378;2023-02-15T05:58:38;6.60;59.60
76168;DHT22;64927;48.214;16.378;2023-02-15T06:01:14;6.60;58.90
76168;DHT22;64927;48.214;16.378;2023-02-15T06:03:40;6.50;58.90
76168;DHT22;64927;48.214;16.378;2023-02-15T06:06:07;6.40;59.20
76168;DHT22;64927;48.214;16.378;2023-02-15T06:08:38;6.40;59.50
76168;DHT22;64927;48.214;16.378;2023-02-15T06:11:04;6.20;59.90
76168;DHT22;64927;48.214;16.378;2023-02-15T06:13:30;6.20;60.00
76168;DHT22;64927;48.214;16.378;2023-02-15T06:15:56;6.30;60.00
76168;DHT22;64927;48.214;16.378;2023-02-15T06:18:22;6.20;59.70
76168;DHT22;64927;48.214;16.378;2023-02-15T06:20:48;6.10;60.10
76168;DHT22;64927;48.214;16.378;2023-02-15T06:23:17;6.20;60.20
76168;DHT22;64927;48.214;16.378;2023-02-15T06:25:44;6.10;60.30
76168;DHT22;64927;48.214;16.378;2023-02-15T06:28:14;6.00;60.60
76168;DHT22;64927;48.214;16.378;2023-02-15T06:30:40;6.00;60.60
76168;DHT22;64927;48.214;16.378;2023-02-15T06:33:06;6.10;60.50
76168;DHT22;64927;48.214;16.378;2023-02-15T06:35:31;6.10;60.40
76168;DHT22;64927;48.214;16.378;2023-02-15T06:37:59;6.20;60.20
76168;DHT22;64927;48.214;16.378;2023-02-15T06:40:25;6.20;60.10
76168;DHT22;64927;48.214;16.378;2023-02-15T06:42:51;6.30;60.10
76168;DHT22;64927;48.214;16.378;2023-02-15T06:45:19;6.40;59.90
76168;DHT22;64927;48.214;16.378;2023-02-15T06:47:44;6.40;59.10
76168;DHT22;64927;48.214;16.378;2023-02-15T06:50:10;6.40;59.40
76168;DHT22;64927;48.214;16.378;2023-02-15T06:52:36;6.50;59.20
76168;DHT22;64927;48.214;16.378;2023-02-15T06:55:02;6.60;59.00
76168;DHT22;64927;48.214;16.378;2023-02-15T06:57:28;6.50;59.10
76168;DHT22;64927;48.214;16.378;2023-02-15T06:59:56;6.60;59.00
76168;DHT22;64927;48.214;16.378;2023-02-15T07:02:23;6.70;58.90
76168;DHT22;64927;48.214;16.378;2023-02-15T07:04:49;6.70;59.40
76168;DHT22;64927;48.214;16.378;2023-02-15T07:07:15;6.70;58.50
76168;DHT22;64927;48.214;16.378;2023-02-15T07:09:43;6.60;58.60
76168;DHT22;64927;48.214;16.378;2023-02-15T07:12:09;6.80;58.30
76168;DHT22;64927;48.214;16.378;2023-02-15T07:14:53;6.70;58.30
76168;DHT22;64927;48.214;16.378;2023-02-15T07:17:19;6.60;58.60
76168;DHT22;64927;48.214;16.378;2023-02-15T07:19:47;6.70;58.60
76168;DHT22;64927;48.214;16.378;2023-02-15T07:22:16;6.70;58.60
76168;DHT22;64927;48.214;16.378;2023-02-15T07:24:44;6.70;58.20
76168;DHT22;64927;48.214;16.378;2023-02-15T07:27:09;6.70;58.00
76168;DHT22;64927;48.214;16.378;2023-02-15T07:29:37;6.80;58.30
76168;DHT22;64927;48.214;16.378;2023-02-15T07:32:03;6.70;58.20
76168;DHT22;64927;48.214;16.378;2023-02-15T07:34:28;6.70;58.10
76168;DHT22;64927;48.214;16.378;2023-02-15T07:36:54;6.80;57.80
76168;DHT22;64927;48.214;16.378;2023-02-15T07:39:20;6.70;58.00
76168;DHT22;64927;48.214;16.378;2023-02-15T07:41:45;6.80;57.80
76168;DHT22;64927;48.214;16.378;2023-02-15T07:44:17;6.80;57.90
76168;DHT22;64927;48.214;16.378;2023-02-15T07:46:45;6.80;58.10
76168;DHT22;64927;48.214;16.378;2023-02-15T07:49:10;6.90;58.10
76168;DHT22;64927;48.214;16.378;2023-02-15T07:51:36;7.00;58.00
76168;DHT22;64927;48.214;16.378;2023-02-15T07:54:02;6.90;57.90
76168;DHT22;64927;48.214;16.378;2023-02-15T07:56:27;6.80;57.80
76168;DHT22;64927;48.214;16.378;2023-02-15T07:58:53;6.70;58.50
76168;DHT22;64927;48.214;16.378;2023-02-15T08:01:29;6.70;58.70
76168;DHT22;64927;48.214;16.378;2023-02-15T08:03:59;6.80;58.70
76168;DHT22;64927;48.214;16.378;2023-02-15T08:06:27;6.80;58.70
76168;DHT22;64927;48.214;16.378;2023-02-15T08:08:52;6.80;58.90
76168;DHT22;64927;48.214;16.378;2023-02-15T08:11:23;6.80;58.90
76168;DHT22;64927;48.214;16.378;2023-02-15T08:14:30;6.60;59.00
76168;DHT22;64927;48.214;16.378;2023-02-15T08:16:53;6.40;60.10
76168;DHT22;64927;48.214;16.378;2023-02-15T08:21:55;6.50;59.20
76168;DHT22;64927;48.214;16.378;2023-02-15T08:24:24;6.50;59.00
76168;DHT22;64927;48.214;16.378;2023-02-15T08:26:50;6.60;59.20
76168;DHT22;64927;48.214;16.378;2023-02-15T08:29:18;6.60;58.90
76168;DHT22;64927;48.214;16.378;2023-02-15T08:31:48;6.50;59.00
76168;DHT22;64927;48.214;16.378;2023-02-15T08:34:17;6.50;59.40
76168;DHT22;64927;48.214;16.378;2023-02-15T08:36:43;6.60;59.30
76168;DHT22;64927;48.214;16.378;2023-02-15T08:39:10;6.80;58.60
76168;DHT22;64927;48.214;16.378;2023-02-15T08:41:38;6.70;58.60
76168;DHT22;64927;48.214;16.378;2023-02-15T08:44:08;6.70;58.40
76168;DHT22;64927;48.214;16.378;2023-02-15T08:46:37;6.80;58.30
76168;DHT22;64927;48.214;16.378;2023-02-15T08:49:04;6.80;58.20
76168;DHT22;64927;48.214;16.378;2023-02-15T08:51:34;6.60;58.70
76168;DHT22;64927;48.214;16.378;2023-02-15T08:54:07;6.60;59.00
76168;DHT22;64927;48.214;16.378;2023-02-15T08:56:38;6.60;59.40
76168;DHT22;64927;48.214;16.378;2023-02-15T08:59:05;6.60;59.50
76168;DHT22;64927;48.214;16.378;2023-02-15T09:01:32;6.60;59.60
76168;DHT22;64927;48.214;16.378;2023-02-15T09:04:09;6.60;59.60
76168;DHT22;64927;48.214;16.378;2023-02-15T09:06:36;6.60;59.70
76168;DHT22;64927;48.214;16.378;2023-02-15T09:09:02;6.50;60.30
76168;DHT22;64927;48.214;16.378;2023-02-15T09:11:35;6.50;60.00
76168;DHT22;64927;48.214;16.378;2023-02-15T09:14:08;6.50;60.00
76168;DHT22;64927;48.214;16.378;2023-02-15T09:16:39;6.50;60.30
76168;DHT22;64927;48.214;16.378;2023-02-15T09:19:10;6.60;60.40
76168;DHT22;64927;48.214;16.378;2023-02-15T09:21:39;6.80;60.00
76168;DHT22;64927;48.214;16.378;2023-02-15T09:24:10;6.90;59.50
76168;DHT22;64927;48.214;16.378;2023-02-15T09:26:41;7.10;58.60
76168;DHT22;64927;48.214;16.378;2023-02-15T09:29:07;7.10;58.20
76168;DHT22;64927;48.214;16.378;2023-02-15T09:31:37;6.90;58.10
76168;DHT22;64927;48.214;16.378;2023-02-15T09:34:04;6.90;58.50
76168;DHT22;64927;48.214;16.378;2023-02-15T09:36:32;6.90;58.30
76168;DHT22;64927;48.214;16.378;2023-02-15T09:39:22;7.00;58.70
76168;DHT22;64927;48.214;16.378;2023-02-15T09:50:33;7.40;58.20
76168;DHT22;64927;48.214;16.378;2023-02-15T09:55:54;7.50;56.70
76168;DHT22;64927;48.214;16.378;2023-02-15T09:58:51;7.50;56.80
76168;DHT22;64927;48.214;16.378;2023-02-15T10:06:47;6.80;57.80
76168;DHT22;64927;48.214;16.378;2023-02-15T10:23:15;7.00;57.80
76168;DHT22;64927;48.214;16.378;2023-02-15T10:28:49;7.30;57.30
76168;DHT22;64927;48.214;16.378;2023-02-15T10:31:26;7.70;57.20
76168;DHT22;64927;48.214;16.378;2023-02-15T10:42:00;7.60;56.00
76168;DHT22;64927;48.214;16.378;2023-02-15T10:54:57;7.60;56.10
76168;DHT22;64927;48.214;16.378;2023-02-15T10:57:58;7.30;57.20
76168;DHT22;64927;48.214;16.378;2023-02-15T11:01:12;7.60;56.50
76168;DHT22;64927;48.214;16.378;2023-02-15T11:06:19;7.90;55.10
76168;DHT22;64927;48.214;16.378;2023-02-15T11:08:54;8.00;54.70
76168;DHT22;64927;48.214;16.378;2023-02-15T11:11:36;8.00;54.80
76168;DHT22;64927;48.214;16.378;2023-02-15T11:15:02;8.00;54.60
76168;DHT22;64927;48.214;16.378;2023-02-15T11:17:14;8.00;55.50
76168;DHT22;64927;48.214;16.378;2023-02-15T11:22:33;8.60;53.30
76168;DHT22;64927;48.214;16.378;2023-02-15T11:25:00;8.40;53.30
76168;DHT22;64927;48.214;16.378;2023-02-15T11:27:33;8.10;53.60
76168;DHT22;64927;48.214;16.378;2023-02-15T11:30:27;7.90;54.60
76168;DHT22;64927;48.214;16.378;2023-02-15T11:32:57;7.80;55.00
76168;DHT22;64927;48.214;16.378;2023-02-15T11:38:20;7.90;55.50
76168;DHT22;64927;48.214;16.378;2023-02-15T11:43:41;8.40;55.00
76168;DHT22;64927;48.214;16.378;2023-02-15T11:46:11;8.20;54.60
76168;DHT22;64927;48.214;16.378;2023-02-15T11:48:37;8.10;54.90
76168;DHT22;64927;48.214;16.378;2023-02-15T11:51:04;8.40;54.40
76168;DHT22;64927;48.214;16.378;2023-02-15T11:53:36;8.60;54.00
76168;DHT22;64927;48.214;16.378;2023-02-15T11:56:03;8.60;53.70
76168;DHT22;64927;48.214;16.378;2023-02-15T11:58:36;8.60;53.80
76168;DHT22;64927;48.214;16.378;2023-02-15T12:01:10;8.60;53.80
76168;DHT22;64927;48.214;16.378;2023-02-15T12:03:47;8.30;54.40
76168;DHT22;64927;48.214;16.378;2023-02-15T12:06:29;8.40;54.60
76168;DHT22;64927;48.214;16.378;2023-02-15T12:11:44;8.50;53.90
76168;DHT22;64927;48.214;16.378;2023-02-15T12:14:12;8.40;54.30
76168;DHT22;64927;48.214;16.378;2023-02-15T12:16:49;8.10;55.10
76168;DHT22;64927;48.214;16.378;2023-02-15T12:21:56;8.00;55.70
76168;DHT22;64927;48.214;16.378;2023-02-15T12:24:36;8.20;55.70
76168;DHT22;64927;48.214;16.378;2023-02-15T12:29:32;8.20;55.70
76168;DHT22;64927;48.214;16.378;2023-02-15T12:32:00;8.30;55.90
76168;DHT22;64927;48.214;16.378;2023-02-15T12:34:29;8.50;54.60
76168;DHT22;64927;48.214;16.378;2023-02-15T12:37:00;8.30;55.10
76168;DHT22;64927;48.214;16.378;2023-02-15T12:39:31;8.20;55.30
76168;DHT22;64927;48.214;16.378;2023-02-15T12:42:16;8.30;55.70
76168;DHT22;64927;48.214;16.378;2023-02-15T12:45:01;8.20;55.50
76168;DHT22;64927;48.214;16.378;2023-02-15T12:47:29;8.10;56.00
76168;DHT22;64927;48.214;16.378;2023-02-15T12:50:23;8.00;56.30
76168;DHT22;64927;48.214;16.378;2023-02-15T12:53:51;8.10;56.20
76168;DHT22;64927;48.214;16.378;2023-02-15T12:56:06;8.10;56.20
76168;DHT22;64927;48.214;16.378;2023-02-15T12:58:34;8.00;56.30
76168;DHT22;64927;48.214;16.378;2023-02-15T13:03:36;7.80;57.20
76168;DHT22;64927;48.214;16.378;2023-02-15T13:06:04;7.60;57.40
76168;DHT22;64927;48.214;16.378;2023-02-15T13:08:49;7.40;58.20
76168;DHT22;64927;48.214;16.378;2023-02-15T13:11:29;7.40;58.40
76168;DHT22;64927;48.214;16.378;2023-02-15T13:14:13;7.50;58.20
76168;DHT22;64927;48.214;16.378;2023-02-15T13:16:42;7.50;58.40
76168;DHT22;64927;48.214;16.378;2023-02-15T13:19:14;7.30;58.70
76168;DHT22;64927;48.214;16.378;2023-02-15T13:21:45;7.50;58.70
76168;DHT22;64927;48.214;16.378;2023-02-15T13:24:24;7.50;58.70
76168;DHT22;64927;48.214;16.378;2023-02-15T13:26:54;7.40;59.10
76168;DHT22;64927;48.214;16.378;2023-02-15T13:29:29;7.40;59.20
76168;DHT22;64927;48.214;16.378;2023-02-15T13:31:58;7.50;58.80
76168;DHT22;64927;48.214;16.378;2023-02-15T13:34:40;7.60;58.70
76168;DHT22;64927;48.214;16.378;2023-02-15T13:37:18;7.40;59.10
76168;DHT22;64927;48.214;16.378;2023-02-15T13:42:40;7.60;58.60
76168;DHT22;64927;48.214;16.378;2023-02-15T13:47:44;7.80;58.40
76168;DHT22;64927;48.214;16.378;2023-02-15T13:58:01;7.90;57.70
76168;DHT22;64927;48.214;16.378;2023-02-15T14:23:37;8.10;57.00
76168;DHT22;64927;48.214;16.378;2023-02-15T14:26:21;8.00;57.30
76168;DHT22;64927;48.214;16.378;2023-02-15T14:31:41;7.80;57.80
76168;DHT22;64927;48.214;16.378;2023-02-15T14:35:04;7.70;57.90
76168;DHT22;64927;48.214;16.378;2023-02-15T14:37:04;7.60;58.40
76168;DHT22;64927;48.214;16.378;2023-02-15T14:45:46;7.60;58.70
76168;DHT22;64927;48.214;16.378;2023-02-15T14:48:41;7.70;58.50
76168;DHT22;64927;48.214;16.378;2023-02-15T14:51:04;7.80;58.20
76168;DHT22;64927;48.214;16.378;2023-02-15T14:58:55;7.80;58.00
76168;DHT22;64927;48.214;16.378;2023-02-15T15:01:35;7.80;58.00
76168;DHT22;64927;48.214;16.378;2023-02-15T15:04:12;7.90;58.00
76168;DHT22;64927;48.214;16.378;2023-02-15T15:06:42;7.90;57.90
76168;DHT22;64927;48.214;16.378;2023-02-15T15:09:25;8.00;59.20
76168;DHT22;64927;48.214;16.378;2023-02-15T15:11:53;7.90;58.40
76168;DHT22;64927;48.214;16.378;2023-02-15T15:16:57;7.90;59.00
76168;DHT22;64927;48.214;16.378;2023-02-15T15:22:26;7.80;59.50
76168;DHT22;64927;48.214;16.378;2023-02-15T15:24:59;7.70;59.80
76168;DHT22;64927;48.214;16.378;2023-02-15T15:33:17;7.40;60.70
76168;DHT22;64927;48.214;16.378;2023-02-15T15:38:58;7.30;61.30
76168;DHT22;64927;48.214;16.378;2023-02-15T15:41:47;7.30;61.40
76168;DHT22;64927;48.214;16.378;2023-02-15T15:50:17;7.20;61.90
76168;DHT22;64927;48.214;16.378;2023-02-15T15:52:48;7.20;62.00
76168;DHT22;64927;48.214;16.378;2023-02-15T15:55:21;7.10;62.10
76168;DHT22;64927;48.214;16.378;2023-02-15T15:57:51;7.10;62.20
76168;DHT22;64927;48.214;16.378;2023-02-15T16:00:37;7.10;62.40
76168;DHT22;64927;48.214;16.378;2023-02-15T16:03:05;7.10;62.30
76168;DHT22;64927;48.214;16.378;2023-02-15T16:05:40;7.20;62.20
76168;DHT22;64927;48.214;16.378;2023-02-15T16:08:06;7.30;62.10
76168;DHT22;64927;48.214;16.378;2023-02-15T16:10:35;7.20;62.20
76168;DHT22;64927;48.214;16.378;2023-02-15T16:13:05;7.10;62.50
76168;DHT22;64927;48.214;16.378;2023-02-15T16:18:16;7.00;63.00
76168;DHT22;64927;48.214;16.378;2023-02-15T16:20:48;7.00;63.00
76168;DHT22;64927;48.214;16.378;2023-02-15T16:28:53;6.90;63.10
76168;DHT22;64927;48.214;16.378;2023-02-15T16:31:21;6.70;63.40
76168;DHT22;64927;48.214;16.378;2023-02-15T16:33:53;6.70;63.90
76168;DHT22;64927;48.214;16.378;2023-02-15T16:36:25;6.60;64.10
76168;DHT22;64927;48.214;16.378;2023-02-15T16:41:27;6.40;64.70
76168;DHT22;64927;48.214;16.378;2023-02-15T16:43:56;6.30;65.70
76168;DHT22;64927;48.214;16.378;2023-02-15T16:46:36;6.30;65.20
76168;DHT22;64927;48.214;16.378;2023-02-15T16:49:18;6.30;65.40
76168;DHT22;64927;48.214;16.378;2023-02-15T16:54:23;6.30;65.70
76168;DHT22;64927;48.214;16.378;2023-02-15T16:56:50;6.20;66.00
76168;DHT22;64927;48.214;16.378;2023-02-15T16:59:39;6.20;66.10
76168;DHT22;64927;48.214;16.378;2023-02-15T17:02:27;6.10;66.10
76168;DHT22;64927;48.214;16.378;2023-02-15T17:05:21;6.10;66.30
76168;DHT22;64927;48.214;16.378;2023-02-15T17:08:41;6.10;66.40
76168;DHT22;64927;48.214;16.378;2023-02-15T17:11:08;6.00;66.70
76168;DHT22;64927;48.214;16.378;2023-02-15T17:13:35;5.90;67.00
76168;DHT22;64927;48.214;16.378;2023-02-15T17:18:33;6.00;67.10
76168;DHT22;64927;48.214;16.378;2023-02-15T17:21:20;5.90;67.60
76168;DHT22;64927;48.214;16.378;2023-02-15T17:23:51;5.90;67.60
76168;DHT22;64927;48.214;16.378;2023-02-15T17:26:23;5.90;67.70
76168;DHT22;64927;48.214;16.378;2023-02-15T17:31:19;5.80;68.10
76168;DHT22;64927;48.214;16.378;2023-02-15T17:33:46;5.70;68.40
76168;DHT22;64927;48.214;16.378;2023-02-15T17:36:24;5.60;68.60
76168;DHT22;64927;48.214;16.378;2023-02-15T17:39:20;5.60;68.90
76168;DHT22;64927;48.214;16.378;2023-02-15T17:41:47;5.70;68.90
76168;DHT22;64927;48.214;16.378;2023-02-15T17:44:14;5.70;69.10
76168;DHT22;64927;48.214;16.378;2023-02-15T17:46:41;5.60;69.20
76168;DHT22;64927;48.214;16.378;2023-02-15T17:49:39;5.60;69.30
76168;DHT22;64927;48.214;16.378;2023-02-15T17:52:09;5.60;69.30
76168;DHT22;64927;48.214;16.378;2023-02-15T17:54:35;5.50;69.60
76168;DHT22;64927;48.214;16.378;2023-02-15T17:57:19;5.50;69.60
76168;DHT22;64927;48.214;16.378;2023-02-15T17:59:46;5.50;70.50
76168;DHT22;64927;48.214;16.378;2023-02-15T18:02:33;5.60;69.60
76168;DHT22;64927;48.214;16.378;2023-02-15T18:05:18;5.60;69.60
76168;DHT22;64927;48.214;16.378;2023-02-15T18:08:04;5.50;69.70
76168;DHT22;64927;48.214;16.378;2023-02-15T18:10:51;5.60;69.70
76168;DHT22;64927;48.214;16.378;2023-02-15T18:13:36;5.50;69.70
76168;DHT22;64927;48.214;16.378;2023-02-15T18:16:02;5.60;69.70
76168;DHT22;64927;48.214;16.378;2023-02-15T18:18:29;5.60;69.40
76168;DHT22;64927;48.214;16.378;2023-02-15T18:20:55;5.70;69.20
76168;DHT22;64927;48.214;16.378;2023-02-15T18:23:24;5.70;69.20
76168;DHT22;64927;48.214;16.378;2023-02-15T18:25:50;5.70;69.30
76168;DHT22;64927;48.214;16.378;2023-02-15T18:28:16;5.70;69.10
76168;DHT22;64927;48.214;16.378;2023-02-15T18:30:42;5.70;69.20
76168;DHT22;64927;48.214;16.378;2023-02-15T18:33:24;5.70;69.40
76168;DHT22;64927;48.214;16.378;2023-02-15T18:35:53;5.60;69.70
76168;DHT22;64927;48.214;16.378;2023-02-15T18:38:19;5.50;69.80
76168;DHT22;64927;48.214;16.378;2023-02-15T18:40:46;5.50;69.90
76168;DHT22;64927;48.214;16.378;2023-02-15T18:43:15;5.50;70.00
76168;DHT22;64927;48.214;16.378;2023-02-15T18:45:41;5.60;69.90
76168;DHT22;64927;48.214;16.378;2023-02-15T18:48:07;5.60;69.70
76168;DHT22;64927;48.214;16.378;2023-02-15T18:50:35;5.60;69.50
76168;DHT22;64927;48.214;16.378;2023-02-15T18:53:03;5.60;69.40
76168;DHT22;64927;48.214;16.378;2023-02-15T18:55:31;5.70;69.40
76168;DHT22;64927;48.214;16.378;2023-02-15T18:57:58;5.70;69.50
76168;DHT22;64927;48.214;16.378;2023-02-15T19:00:33;5.60;69.10
76168;DHT22;64927;48.214;16.378;2023-02-15T19:03:00;5.60;69.40
76168;DHT22;64927;48.214;16.378;2023-02-15T19:05:29;5.60;69.50
76168;DHT22;64927;48.214;16.378;2023-02-15T19:07:57;5.50;69.60
76168;DHT22;64927;48.214;16.378;2023-02-15T19:10:27;5.40;69.90
76168;DHT22;64927;48.214;16.378;2023-02-15T19:12:54;5.40;70.10